createdAt,value
2019-03-28T00:00:35.103Z,51.18
2019-03-28T00:01:39.717Z,51.14
2019-03-28T00:02:44.085Z,51.08
2019-03-28T00:03:48.849Z,51.09
2019-03-28T00:04:53.380Z,51.06
2019-03-28T00:05:58.190Z,51.06
2019-03-28T00:07:02.630Z,51.03
2019-03-28T00:08:07.151Z,51.03
2019-03-28T00:09:11.604Z,50.99
2019-03-28T00:10:16.248Z,50.93
2019-03-28T00:11:20.760Z,50.91
2019-03-28T00:12:25.200Z,50.86
2019-03-28T00:13:30.121Z,50.86
2019-03-28T00:14:34.570Z,50.85
2019-03-28T00:15:39.015Z,50.88
2019-03-28T00:16:43.382Z,50.86
2019-03-28T00:17:47.742Z,50.85
2019-03-28T00:18:52.180Z,50.83
2019-03-28T00:19:56.682Z,50.81
2019-03-28T00:21:01.483Z,50.81
2019-03-28T00:22:06.456Z,50.82
2019-03-28T00:23:21.097Z,50.77
2019-03-28T00:24:29.011Z,50.77
2019-03-28T00:25:33.540Z,50.75
2019-03-28T00:26:38.344Z,50.76
2019-03-28T00:27:42.791Z,50.76
2019-03-28T00:28:47.491Z,50.83
2019-03-28T00:29:52.431Z,50.84
2019-03-28T00:30:57.146Z,50.88
2019-03-28T00:32:01.520Z,50.91
2019-03-28T00:33:06.293Z,50.91
2019-03-28T00:34:11.095Z,50.97
2019-03-28T00:35:16.013Z,51.02
2019-03-28T00:36:21.025Z,51.03
2019-03-28T00:37:25.971Z,51.10
2019-03-28T00:38:30.503Z,51.12
2019-03-28T00:39:35.020Z,51.18
2019-03-28T00:40:39.397Z,51.23
2019-03-28T00:41:44.205Z,51.29
2019-03-28T00:42:48.657Z,51.33
2019-03-28T00:43:53.275Z,51.37
2019-03-28T00:44:57.685Z,51.47
2019-03-28T00:46:02.447Z,51.57
2019-03-28T00:47:06.898Z,51.69
2019-03-28T00:48:11.465Z,51.74
2019-03-28T00:49:15.994Z,51.79
2019-03-28T00:50:20.619Z,51.85
2019-03-28T00:51:25.643Z,51.91
2019-03-28T00:52:30.160Z,51.94
2019-03-28T00:53:34.615Z,51.97
2019-03-28T00:54:39.441Z,51.99
2019-03-28T00:55:43.987Z,52.00
2019-03-28T00:56:48.539Z,52.05
2019-03-28T00:57:53.334Z,52.06
2019-03-28T00:58:57.867Z,52.09
2019-03-28T01:00:02.889Z,52.09
2019-03-28T01:01:07.713Z,52.08
2019-03-28T01:02:12.558Z,52.08
2019-03-28T01:03:17.010Z,52.07
2019-03-28T01:04:21.824Z,52.11
2019-03-28T01:05:26.411Z,52.11
2019-03-28T01:06:31.198Z,52.13
2019-03-28T01:07:35.745Z,52.13
2019-03-28T01:08:40.529Z,52.15
2019-03-28T01:09:45.366Z,52.24
2019-03-28T01:10:49.920Z,52.27
2019-03-28T01:11:54.631Z,52.30
2019-03-28T01:12:59.083Z,52.35
2019-03-28T01:14:03.625Z,52.42
2019-03-28T01:15:08.664Z,52.51
2019-03-28T01:16:13.117Z,52.62
2019-03-28T01:17:18.051Z,52.67
2019-03-28T01:18:23.069Z,52.73
2019-03-28T01:19:27.809Z,52.76
2019-03-28T01:20:32.289Z,52.78
2019-03-28T01:21:36.912Z,52.82
2019-03-28T01:22:41.366Z,52.81
2019-03-28T01:27:53.513Z,52.71
2019-03-28T01:28:58.321Z,52.74
2019-03-28T01:30:03.103Z,52.80
2019-03-28T01:31:07.802Z,52.87
2019-03-28T01:32:12.326Z,52.88
2019-03-28T01:33:16.700Z,52.91
2019-03-28T01:34:21.429Z,52.92
2019-03-28T01:35:26.457Z,52.91
2019-03-28T01:36:30.837Z,52.89
2019-03-28T01:37:35.360Z,52.84
2019-03-28T01:38:40.110Z,52.77
2019-03-28T01:39:44.865Z,52.75
2019-03-28T01:40:50.150Z,52.73
2019-03-28T01:41:54.837Z,52.70
2019-03-28T01:42:59.289Z,52.69
2019-03-28T01:44:04.021Z,52.71
2019-03-28T01:45:08.865Z,52.75
2019-03-28T01:46:13.648Z,52.79
2019-03-28T01:47:18.373Z,52.81
2019-03-28T01:48:23.368Z,52.81
2019-03-28T01:49:28.484Z,52.80
2019-03-28T01:50:33.022Z,52.81
2019-03-28T01:51:37.546Z,52.79
2019-03-28T01:52:42.822Z,52.80
2019-03-28T01:53:47.690Z,52.78
2019-03-28T01:54:52.144Z,52.78
2019-03-28T01:55:57.098Z,52.83
2019-03-28T01:57:10.966Z,52.86
2019-03-28T01:58:08.042Z,52.90
2019-03-28T01:59:12.493Z,52.89
2019-03-28T02:00:17.791Z,52.94
2019-03-28T02:01:22.250Z,52.97
2019-03-28T02:02:26.778Z,53.03
2019-03-28T02:03:31.310Z,53.12
2019-03-28T02:04:35.998Z,53.18
2019-03-28T02:05:40.548Z,53.22
2019-03-28T02:06:45.316Z,53.28
2019-03-28T02:07:50.350Z,53.29
2019-03-28T02:08:54.886Z,53.31
2019-03-28T02:10:00.286Z,53.36
2019-03-28T02:11:05.048Z,53.38
2019-03-28T02:12:10.065Z,53.36
2019-03-28T02:13:14.848Z,53.36
2019-03-28T02:14:19.668Z,53.37
2019-03-28T02:15:24.953Z,53.35
2019-03-28T02:16:30.005Z,53.35
2019-03-28T02:17:34.716Z,53.36
2019-03-28T02:18:39.498Z,53.38
2019-03-28T02:19:45.153Z,53.41
2019-03-28T02:20:49.824Z,53.43
2019-03-28T02:21:54.349Z,53.46
2019-03-28T02:22:59.634Z,53.45
2019-03-28T02:24:04.160Z,53.44
2019-03-28T02:25:08.711Z,53.41
2019-03-28T02:26:13.921Z,53.38
2019-03-28T02:27:23.854Z,53.35
2019-03-28T02:28:25.111Z,53.34
2019-03-28T02:29:29.728Z,53.32
2019-03-28T02:30:34.786Z,53.35
2019-03-28T02:31:39.497Z,53.39
2019-03-28T02:32:44.275Z,53.36
2019-03-28T02:33:48.798Z,53.36
2019-03-28T02:34:53.532Z,53.36
2019-03-28T02:35:58.840Z,53.38
2019-03-28T02:37:03.551Z,53.38
2019-03-28T02:38:08.334Z,53.43
2019-03-28T02:39:13.089Z,53.46
2019-03-28T02:40:17.795Z,53.48
2019-03-28T02:41:22.537Z,53.50
2019-03-28T02:42:27.952Z,53.57
2019-03-28T02:43:32.642Z,53.58
2019-03-28T02:44:37.595Z,53.60
2019-03-28T02:45:42.790Z,53.63
2019-03-28T02:46:47.562Z,53.65
2019-03-28T02:47:52.336Z,53.69
2019-03-28T02:48:56.958Z,53.70
2019-03-28T02:50:01.404Z,53.71
2019-03-28T02:51:06.206Z,53.76
2019-03-28T02:52:10.994Z,53.78
2019-03-28T02:53:15.947Z,53.81
2019-03-28T02:54:20.715Z,53.85
2019-03-28T02:55:25.239Z,53.87
2019-03-28T02:56:30.011Z,53.90
2019-03-28T02:57:41.762Z,53.89
2019-03-28T02:58:42.249Z,53.90
2019-03-28T02:59:47.023Z,53.88
2019-03-28T03:00:51.908Z,53.89
2019-03-28T03:01:56.375Z,53.88
2019-03-28T03:03:01.396Z,53.84
2019-03-28T03:04:06.091Z,53.85
2019-03-28T03:05:10.633Z,53.85
2019-03-28T03:06:15.397Z,53.85
2019-03-28T03:07:20.412Z,53.86
2019-03-28T03:08:25.174Z,53.88
2019-03-28T03:09:29.945Z,53.88
2019-03-28T03:10:34.960Z,53.87
2019-03-28T03:11:42.712Z,53.87
2019-03-28T03:12:46.454Z,53.84
2019-03-28T03:13:51.156Z,53.85
2019-03-28T03:14:55.932Z,53.92
2019-03-28T03:16:01.268Z,54.02
2019-03-28T03:17:06.069Z,54.05
2019-03-28T03:18:10.759Z,54.09
2019-03-28T03:19:16.235Z,54.18
2019-03-28T03:20:21.002Z,54.25
2019-03-28T03:21:25.712Z,54.32
2019-03-28T03:22:30.492Z,54.33
2019-03-28T03:23:35.190Z,54.36
2019-03-28T03:24:39.742Z,54.39
2019-03-28T03:25:44.509Z,54.43
2019-03-28T03:26:49.587Z,54.45
2019-03-28T03:27:58.431Z,54.46
2019-03-28T03:29:01.669Z,54.47
2019-03-28T03:30:06.909Z,54.50
2019-03-28T03:31:11.513Z,54.53
2019-03-28T03:32:15.957Z,54.57
2019-03-28T03:33:20.707Z,54.60
2019-03-28T03:34:25.304Z,54.62
2019-03-28T03:35:29.748Z,54.57
2019-03-28T03:36:34.771Z,54.52
2019-03-28T03:37:39.583Z,54.49
2019-03-28T03:38:44.028Z,54.53
2019-03-28T03:39:49.051Z,54.56
2019-03-28T03:40:54.738Z,54.58
2019-03-28T03:42:00.038Z,54.60
2019-03-28T03:43:04.808Z,54.63
2019-03-28T03:44:09.591Z,54.61
2019-03-28T03:45:14.123Z,54.62
2019-03-28T03:46:18.646Z,54.59
2019-03-28T03:47:23.096Z,54.56
2019-03-28T03:48:27.968Z,54.54
2019-03-28T03:49:32.745Z,54.57
2019-03-28T03:50:37.584Z,54.59
2019-03-28T03:51:46.217Z,54.57
2019-03-28T03:52:48.882Z,54.64
2019-03-28T03:53:53.840Z,54.63
2019-03-28T03:54:58.658Z,54.68
2019-03-28T03:56:03.413Z,54.71
2019-03-28T03:57:08.186Z,54.72
2019-03-28T03:58:16.081Z,54.75
2019-03-28T03:59:19.718Z,54.75
2019-03-28T04:00:34.296Z,54.70
2019-03-28T04:01:38.820Z,54.69
2019-03-28T04:02:43.274Z,54.64
2019-03-28T04:03:48.393Z,54.68
2019-03-28T04:04:56.601Z,54.69
2019-03-28T04:05:59.524Z,54.67
2019-03-28T04:07:04.309Z,54.67
2019-03-28T04:08:09.264Z,54.68
2019-03-28T04:09:13.787Z,54.68
2019-03-28T04:10:18.490Z,54.72
2019-03-28T04:11:22.863Z,54.73
2019-03-28T04:12:27.556Z,54.81
2019-03-28T04:13:32.770Z,54.83
2019-03-28T04:14:37.645Z,54.84
2019-03-28T04:15:42.597Z,54.80
2019-03-28T04:16:47.629Z,54.78
2019-03-28T04:17:52.882Z,54.77
2019-03-28T04:18:57.562Z,54.69
2019-03-28T04:20:02.146Z,54.60
2019-03-28T04:21:06.941Z,54.55
2019-03-28T04:22:11.718Z,54.52
2019-03-28T04:23:16.684Z,54.54
2019-03-28T04:24:21.938Z,54.51
2019-03-28T04:25:27.116Z,54.50
2019-03-28T04:26:32.301Z,54.54
2019-03-28T04:27:36.684Z,54.56
2019-03-28T04:28:41.427Z,54.56
2019-03-28T04:29:46.206Z,54.58
2019-03-28T04:30:50.905Z,54.57
2019-03-28T04:31:55.675Z,54.54
2019-03-28T04:33:00.128Z,54.53
2019-03-28T04:34:07.819Z,54.54
2019-03-28T04:35:11.423Z,54.54
2019-03-28T04:36:16.130Z,54.54
2019-03-28T04:37:20.657Z,54.54
2019-03-28T04:38:25.700Z,54.54
2019-03-28T04:39:30.569Z,54.56
2019-03-28T04:40:34.939Z,54.58
2019-03-28T04:41:39.494Z,54.62
2019-03-28T04:42:45.960Z,54.70
2019-03-28T04:43:51.919Z,54.74
2019-03-28T04:44:57.032Z,54.73
2019-03-28T04:46:01.742Z,54.76
2019-03-28T04:47:06.450Z,54.78
2019-03-28T04:48:11.150Z,54.81
2019-03-28T04:49:16.105Z,54.84
2019-03-28T04:50:20.639Z,54.84
2019-03-28T04:51:25.345Z,54.85
2019-03-28T04:52:31.950Z,54.88
2019-03-28T04:53:37.526Z,54.83
2019-03-28T04:54:42.723Z,54.79
2019-03-28T04:55:47.748Z,54.83
2019-03-28T04:56:52.443Z,54.84
2019-03-28T04:57:57.161Z,54.83
2019-03-28T04:59:01.877Z,54.80
2019-03-28T05:00:07.439Z,54.80
2019-03-28T05:01:12.385Z,54.82
2019-03-28T05:02:17.019Z,54.83
2019-03-28T05:03:21.463Z,54.84
2019-03-28T05:04:26.171Z,54.84
2019-03-28T05:05:30.945Z,54.86
2019-03-28T05:06:38.016Z,54.86
2019-03-28T05:07:42.400Z,54.90
2019-03-28T05:08:47.460Z,54.92
2019-03-28T05:09:52.505Z,54.90
2019-03-28T05:10:57.290Z,54.89
2019-03-28T05:12:01.729Z,54.90
2019-03-28T05:13:06.746Z,54.92
2019-03-28T05:14:11.398Z,54.89
2019-03-28T05:15:16.266Z,54.86
2019-03-28T05:16:20.885Z,54.88
2019-03-28T05:17:25.342Z,54.94
2019-03-28T05:18:30.052Z,54.97
2019-03-28T05:19:34.677Z,55.00
2019-03-28T05:20:39.211Z,55.02
2019-03-28T05:21:43.666Z,55.03
2019-03-28T05:22:48.558Z,55.01
2019-03-28T05:23:53.642Z,55.01
2019-03-28T05:24:58.731Z,55.00
2019-03-28T05:26:03.597Z,54.93
2019-03-28T05:27:08.366Z,54.86
2019-03-28T05:28:13.238Z,54.83
2019-03-28T05:29:17.936Z,54.76
2019-03-28T05:30:22.707Z,54.71
2019-03-28T05:31:27.397Z,54.69
2019-03-28T05:32:32.274Z,54.64
2019-03-28T05:33:36.650Z,54.61
2019-03-28T05:34:41.119Z,54.59
2019-03-28T05:35:45.570Z,54.54
2019-03-28T05:36:52.107Z,54.44
2019-03-28T05:37:56.641Z,54.38
2019-03-28T05:39:01.433Z,54.29
2019-03-28T05:40:07.029Z,54.24
2019-03-28T05:41:11.552Z,54.24
2019-03-28T05:42:16.323Z,54.20
2019-03-28T05:43:21.381Z,54.27
2019-03-28T05:44:26.262Z,54.31
2019-03-28T05:45:31.208Z,54.26
2019-03-28T05:46:35.908Z,54.23
2019-03-28T05:47:40.438Z,54.18
2019-03-28T05:48:45.306Z,54.13
2019-03-28T05:49:50.449Z,54.11
2019-03-28T05:50:55.644Z,54.03
2019-03-28T05:52:00.425Z,53.96
2019-03-28T05:53:05.193Z,53.90
2019-03-28T05:54:09.911Z,53.76
2019-03-28T05:55:14.693Z,53.59
2019-03-28T05:56:19.146Z,53.48
2019-03-28T05:57:23.846Z,53.49
2019-03-28T05:58:28.628Z,53.43
2019-03-28T05:59:33.644Z,53.40
2019-03-28T06:00:39.106Z,53.36
2019-03-28T06:01:44.789Z,53.37
2019-03-28T06:02:50.460Z,53.33
2019-03-28T06:03:55.672Z,53.27
2019-03-28T06:05:00.541Z,53.22
2019-03-28T06:06:05.616Z,53.15
2019-03-28T06:07:10.548Z,53.06
2019-03-28T06:08:15.265Z,52.97
2019-03-28T06:09:20.094Z,52.83
2019-03-28T06:10:24.889Z,52.68
2019-03-28T06:11:29.847Z,52.56
2019-03-28T06:12:34.294Z,52.42
2019-03-28T06:13:39.153Z,52.34
2019-03-28T06:14:43.697Z,52.24
2019-03-28T06:15:48.331Z,52.15
2019-03-28T06:16:52.785Z,52.03
2019-03-28T06:17:57.553Z,51.91
2019-03-28T06:19:02.500Z,51.79
2019-03-28T06:20:08.149Z,51.71
2019-03-28T06:21:13.357Z,51.64
2019-03-28T06:22:18.390Z,51.61
2019-03-28T06:23:23.354Z,51.56
2019-03-28T06:24:28.212Z,51.46
2019-03-28T06:25:33.249Z,51.37
2019-03-28T06:26:38.198Z,51.26
2019-03-28T06:27:43.082Z,51.22
2019-03-28T06:28:48.094Z,51.16
2019-03-28T06:29:52.709Z,51.06
2019-03-28T06:30:57.554Z,50.96
2019-03-28T06:32:02.555Z,50.84
2019-03-28T06:33:08.517Z,50.79
2019-03-28T06:34:13.575Z,50.73
2019-03-28T06:35:20.526Z,50.71
2019-03-28T06:36:26.675Z,50.72
2019-03-28T06:37:32.425Z,50.64
2019-03-28T06:38:36.948Z,50.99
2019-03-28T06:39:42.052Z,51.04
2019-03-28T06:40:47.265Z,50.89
2019-03-28T06:41:51.791Z,51.41
2019-03-28T06:42:56.624Z,52.10
2019-03-28T06:44:01.416Z,52.47
2019-03-28T06:45:06.793Z,52.56
2019-03-28T06:46:11.320Z,52.42
2019-03-28T06:47:16.454Z,51.87
2019-03-28T06:48:21.224Z,52.28
2019-03-28T06:49:25.928Z,51.41
2019-03-28T06:50:30.645Z,51.74
2019-03-28T06:51:35.450Z,51.27
2019-03-28T06:52:40.517Z,51.00
2019-03-28T06:53:45.346Z,50.76
2019-03-28T06:54:49.809Z,50.82
2019-03-28T06:55:54.529Z,50.88
2019-03-28T06:56:59.057Z,50.66
2019-03-28T06:58:03.663Z,50.59
2019-03-28T06:59:08.379Z,50.28
2019-03-28T07:00:13.484Z,50.13
2019-03-28T07:01:18.262Z,50.12
2019-03-28T07:02:22.834Z,50.49
2019-03-28T07:03:27.756Z,50.21
2019-03-28T07:04:32.461Z,49.92
2019-03-28T07:05:36.927Z,49.91
2019-03-28T07:06:41.952Z,49.85
2019-03-28T07:07:46.475Z,49.73
2019-03-28T07:08:51.502Z,49.71
2019-03-28T07:09:56.052Z,49.63
2019-03-28T07:11:01.008Z,49.22
2019-03-28T07:12:06.044Z,48.94
2019-03-28T07:13:10.927Z,48.73
2019-03-28T07:14:15.302Z,48.55
2019-03-28T07:15:20.481Z,48.40
2019-03-28T07:16:25.428Z,48.36
2019-03-28T07:17:29.887Z,48.27
2019-03-28T07:18:34.368Z,48.17
2019-03-28T07:19:39.714Z,47.98
2019-03-28T07:20:44.455Z,47.92
2019-03-28T07:21:49.141Z,47.91
2019-03-28T07:22:54.262Z,47.91
2019-03-28T07:23:59.063Z,47.93
2019-03-28T07:25:03.651Z,48.05
2019-03-28T07:26:08.131Z,48.17
2019-03-28T07:27:12.671Z,48.23
2019-03-28T07:28:17.137Z,48.22
2019-03-28T07:29:21.675Z,48.20
2019-03-28T07:30:26.486Z,48.23
2019-03-28T07:31:30.972Z,48.27
2019-03-28T07:32:36.017Z,48.26
2019-03-28T07:33:40.519Z,48.27
2019-03-28T07:34:45.487Z,48.28
2019-03-28T07:35:50.023Z,48.23
2019-03-28T07:36:54.488Z,48.14
2019-03-28T07:37:58.954Z,48.04
2019-03-28T07:39:04.057Z,47.90
2019-03-28T07:40:09.808Z,47.80
2019-03-28T07:41:16.461Z,47.67
2019-03-28T07:42:21.517Z,47.48
2019-03-28T07:43:26.045Z,47.36
2019-03-28T07:44:30.757Z,47.29
2019-03-28T07:45:35.308Z,47.15
2019-03-28T07:46:40.210Z,47.16
2019-03-28T07:47:44.817Z,47.15
2019-03-28T07:48:49.428Z,47.10
2019-03-28T07:49:54.467Z,46.98
2019-03-28T07:50:59.273Z,46.91
2019-03-28T07:52:04.818Z,46.84
2019-03-28T07:53:09.274Z,46.83
2019-03-28T07:54:13.820Z,46.71
2019-03-28T07:55:18.377Z,46.62
2019-03-28T07:56:23.336Z,46.62
2019-03-28T07:57:28.163Z,46.63
2019-03-28T07:58:32.703Z,46.66
2019-03-28T07:59:37.639Z,46.68
2019-03-28T08:00:42.192Z,46.61
2019-03-28T08:01:46.723Z,46.57
2019-03-28T08:02:51.267Z,46.48
2019-03-28T08:03:56.062Z,46.38
2019-03-28T08:05:01.884Z,46.24
2019-03-28T08:06:06.738Z,46.10
2019-03-28T08:07:11.463Z,46.05
2019-03-28T08:08:16.168Z,46.00
2019-03-28T08:09:20.712Z,45.96
2019-03-28T08:10:25.500Z,45.86
2019-03-28T08:11:30.313Z,45.74
2019-03-28T08:12:34.823Z,45.60
2019-03-28T08:13:39.603Z,45.51
2019-03-28T08:14:44.387Z,45.47
2019-03-28T08:15:49.180Z,45.35
2019-03-28T08:16:53.711Z,45.26
2019-03-28T08:17:58.478Z,45.17
2019-03-28T08:19:03.185Z,45.09
2019-03-28T08:20:09.131Z,44.92
2019-03-28T08:21:14.098Z,44.77
2019-03-28T08:22:18.687Z,44.63
2019-03-28T08:23:23.222Z,44.52
2019-03-28T08:24:27.680Z,44.53
2019-03-28T08:25:32.571Z,44.50
2019-03-28T08:26:37.865Z,44.58
2019-03-28T08:27:43.215Z,44.62
2019-03-28T08:28:48.167Z,44.69
2019-03-28T08:29:53.203Z,44.68
2019-03-28T08:30:58.002Z,44.65
2019-03-28T08:32:03.363Z,44.54
2019-03-28T08:33:08.609Z,44.46
2019-03-28T08:34:13.410Z,44.30
2019-03-28T08:35:18.181Z,44.23
2019-03-28T08:36:23.120Z,44.22
2019-03-28T08:37:28.098Z,44.24
2019-03-28T08:38:34.396Z,44.17
2019-03-28T08:39:39.292Z,44.03
2019-03-28T08:40:44.414Z,44.16
2019-03-28T08:41:50.594Z,44.32
2019-03-28T08:42:55.873Z,44.51
2019-03-28T08:44:00.344Z,44.61
2019-03-28T08:45:05.316Z,44.52
2019-03-28T08:46:10.303Z,44.53
2019-03-28T08:47:15.530Z,44.61
2019-03-28T08:48:20.498Z,44.64
2019-03-28T08:49:25.719Z,44.63
2019-03-28T08:50:30.417Z,44.59
2019-03-28T08:51:35.707Z,44.50
2019-03-28T08:52:40.507Z,44.41
2019-03-28T08:53:45.287Z,44.31
2019-03-28T08:54:49.753Z,44.14
2019-03-28T08:55:54.555Z,44.10
2019-03-28T08:56:59.359Z,44.04
2019-03-28T08:58:05.096Z,43.95
2019-03-28T08:59:09.560Z,43.91
2019-03-28T09:00:16.631Z,43.90
2019-03-28T09:01:20.884Z,43.83
2019-03-28T09:02:25.683Z,43.79
2019-03-28T09:03:30.784Z,43.68
2019-03-28T09:04:35.833Z,43.58
2019-03-28T09:05:40.877Z,43.50
2019-03-28T09:06:45.938Z,43.36
2019-03-28T09:07:50.902Z,43.25
2019-03-28T09:08:55.616Z,43.15
2019-03-28T09:10:00.395Z,42.97
2019-03-28T09:11:04.978Z,42.77
2019-03-28T09:12:09.513Z,42.68
2019-03-28T09:13:14.283Z,42.66
2019-03-28T09:14:18.823Z,42.64
2019-03-28T09:15:23.871Z,42.71
2019-03-28T09:16:28.752Z,42.76
2019-03-28T09:17:33.844Z,42.65
2019-03-28T09:18:38.685Z,42.55
2019-03-28T09:19:48.023Z,42.49
2019-03-28T09:20:52.665Z,42.46
2019-03-28T09:21:57.471Z,42.47
2019-03-28T09:23:02.247Z,42.45
2019-03-28T09:24:06.789Z,42.47
2019-03-28T09:25:12.411Z,42.49
2019-03-28T09:26:17.027Z,42.44
2019-03-28T09:27:21.811Z,42.47
2019-03-28T09:28:26.600Z,42.53
2019-03-28T09:29:31.388Z,42.58
2019-03-28T09:30:47.924Z,42.56
2019-03-28T09:31:46.653Z,42.54
2019-03-28T09:32:51.443Z,42.54
2019-03-28T09:33:56.401Z,42.60
2019-03-28T09:35:00.940Z,42.54
2019-03-28T09:36:05.584Z,42.20
2019-03-28T09:37:10.137Z,42.16
2019-03-28T09:38:14.679Z,42.16
2019-03-28T09:39:19.211Z,42.20
2019-03-28T09:40:24.175Z,42.28
2019-03-28T09:41:28.922Z,42.36
2019-03-28T09:42:33.637Z,42.41
2019-03-28T09:43:38.016Z,42.39
2019-03-28T09:44:42.553Z,42.35
2019-03-28T09:45:47.328Z,42.22
2019-03-28T09:46:52.136Z,42.05
2019-03-28T09:47:56.751Z,41.89
2019-03-28T09:49:01.538Z,41.79
2019-03-28T09:50:06.567Z,41.71
2019-03-28T09:51:11.112Z,41.71
2019-03-28T09:52:15.902Z,41.79
2019-03-28T09:53:20.436Z,41.81
2019-03-28T09:54:25.227Z,41.68
2019-03-28T09:55:30.090Z,41.40
2019-03-28T09:56:34.834Z,41.21
2019-03-28T09:57:39.221Z,41.07
2019-03-28T09:58:44.525Z,40.89
2019-03-28T09:59:49.297Z,41.05
2019-03-28T10:01:02.688Z,41.14
2019-03-28T10:02:01.955Z,41.21
2019-03-28T10:03:06.770Z,41.33
2019-03-28T10:04:11.303Z,41.47
2019-03-28T10:05:15.764Z,41.45
2019-03-28T10:06:20.227Z,41.53
2019-03-28T10:07:25.028Z,41.71
2019-03-28T10:08:29.736Z,41.94
2019-03-28T10:09:35.515Z,42.17
2019-03-28T10:10:40.135Z,42.21
2019-03-28T10:11:45.129Z,42.24
2019-03-28T10:12:49.931Z,42.30
2019-03-28T10:13:54.465Z,42.39
2019-03-28T10:14:59.267Z,42.36
2019-03-28T10:16:04.060Z,42.44
2019-03-28T10:17:08.865Z,42.37
2019-03-28T10:18:13.656Z,42.61
2019-03-28T10:19:18.116Z,42.69
2019-03-28T10:20:22.657Z,42.68
2019-03-28T10:21:27.488Z,42.69
2019-03-28T10:22:32.432Z,42.61
2019-03-28T10:23:39.702Z,42.56
2019-03-28T10:24:43.410Z,42.56
2019-03-28T10:25:48.208Z,42.60
2019-03-28T10:26:53.309Z,42.58
2019-03-28T10:27:58.099Z,42.71
2019-03-28T10:29:02.936Z,42.58
2019-03-28T10:30:09.346Z,42.76
2019-03-28T10:31:16.725Z,42.88
2019-03-28T10:32:20.876Z,42.88
2019-03-28T10:33:25.594Z,42.89
2019-03-28T10:34:30.833Z,43.01
2019-03-28T10:35:35.289Z,43.07
2019-03-28T10:36:39.890Z,43.18
2019-03-28T10:37:44.353Z,43.28
2019-03-28T10:38:49.195Z,43.43
2019-03-28T10:39:53.949Z,43.54
2019-03-28T10:40:58.775Z,43.54
2019-03-28T10:42:03.364Z,43.49
2019-03-28T10:43:08.509Z,43.39
2019-03-28T10:44:13.271Z,43.15
2019-03-28T10:45:17.848Z,43.14
2019-03-28T10:46:22.740Z,43.12
2019-03-28T10:47:27.442Z,43.10
2019-03-28T10:48:32.033Z,43.05
2019-03-28T10:49:36.861Z,42.92
2019-03-28T10:50:45.531Z,42.85
2019-03-28T10:51:48.698Z,42.70
2019-03-28T10:52:53.265Z,42.81
2019-03-28T10:53:57.764Z,42.78
2019-03-28T10:55:02.528Z,42.74
2019-03-28T10:56:21.031Z,42.95
2019-03-28T10:57:28.983Z,42.99
2019-03-28T10:58:20.470Z,43.01
2019-03-28T10:59:25.708Z,42.50
2019-03-28T11:00:30.492Z,41.86
2019-03-28T11:01:47.995Z,42.07
2019-03-28T11:02:41.891Z,41.97
2019-03-28T11:03:46.640Z,41.85
2019-03-28T11:04:51.745Z,41.61
2019-03-28T11:05:56.241Z,41.35
2019-03-28T11:07:01.081Z,41.13
2019-03-28T11:08:05.916Z,41.15
2019-03-28T11:09:10.706Z,40.76
2019-03-28T11:10:15.637Z,40.79
2019-03-28T11:11:20.481Z,40.88
2019-03-28T11:12:25.319Z,40.88
2019-03-28T11:13:30.150Z,40.91
2019-03-28T11:14:34.650Z,40.75
2019-03-28T11:15:39.737Z,40.70
2019-03-28T11:16:47.978Z,40.41
2019-03-28T11:17:51.308Z,40.19
2019-03-28T11:18:56.141Z,40.22
2019-03-28T11:20:00.823Z,40.13
2019-03-28T11:21:05.828Z,40.09
2019-03-28T11:22:10.622Z,40.00
2019-03-28T11:23:15.117Z,39.48
2019-03-28T11:24:19.797Z,39.51
2019-03-28T11:25:24.629Z,39.77
2019-03-28T11:26:29.380Z,39.93
2019-03-28T11:27:34.069Z,39.80
2019-03-28T11:28:38.830Z,39.50
2019-03-28T11:29:43.850Z,39.29
2019-03-28T11:30:48.937Z,39.19
2019-03-28T11:31:53.517Z,38.75
2019-03-28T11:32:58.545Z,38.61
2019-03-28T11:34:03.373Z,38.44
2019-03-28T11:35:08.441Z,38.42
2019-03-28T11:36:13.545Z,38.42
2019-03-28T11:37:25.839Z,38.46
2019-03-28T11:38:24.552Z,38.36
2019-03-28T11:39:29.309Z,38.44
2019-03-28T11:40:34.073Z,38.34
2019-03-28T11:41:39.484Z,38.18
2019-03-28T11:42:44.514Z,38.06
2019-03-28T11:43:49.086Z,37.94
2019-03-28T11:44:53.662Z,37.84
2019-03-28T11:45:58.413Z,37.71
2019-03-28T11:47:02.994Z,37.43
2019-03-28T11:48:08.155Z,37.24
2019-03-28T11:49:12.735Z,37.08
2019-03-28T11:50:17.465Z,37.09
2019-03-28T11:51:22.305Z,37.06
2019-03-28T11:52:27.075Z,36.91
2019-03-28T11:53:31.581Z,36.60
2019-03-28T11:54:36.264Z,36.47
2019-03-28T11:55:41.102Z,36.34
2019-03-28T11:56:46.391Z,36.15
2019-03-28T11:57:51.439Z,35.91
2019-03-28T11:58:56.173Z,35.79
2019-03-28T12:00:01.423Z,35.60
2019-03-28T12:01:05.984Z,35.40
2019-03-28T12:02:19.858Z,35.33
2019-03-28T12:03:17.119Z,35.33
2019-03-28T12:04:21.880Z,35.39
2019-03-28T12:05:26.289Z,35.40
2019-03-28T12:06:31.117Z,35.47
2019-03-28T12:07:35.639Z,35.50
2019-03-28T12:08:40.378Z,35.38
2019-03-28T12:09:45.456Z,35.23
2019-03-28T12:10:50.234Z,35.36
2019-03-28T12:11:55.244Z,35.56
2019-03-28T12:13:00.364Z,35.81
2019-03-28T12:14:04.934Z,35.63
2019-03-28T12:15:10.015Z,35.84
2019-03-28T12:16:14.897Z,36.01
2019-03-28T12:17:19.650Z,36.15
2019-03-28T12:18:25.216Z,36.04
2019-03-28T12:19:30.050Z,35.92
2019-03-28T12:20:34.873Z,36.29
2019-03-28T12:21:39.892Z,36.56
2019-03-28T12:22:44.993Z,36.75
2019-03-28T12:23:49.827Z,36.85
2019-03-28T12:24:54.649Z,36.92
2019-03-28T12:25:59.685Z,36.97
2019-03-28T12:27:04.261Z,36.70
2019-03-28T12:28:09.106Z,36.81
2019-03-28T12:29:13.866Z,36.96
2019-03-28T12:30:18.758Z,36.99
2019-03-28T12:31:23.873Z,37.05
2019-03-28T12:32:28.569Z,37.05
2019-03-28T12:33:33.393Z,36.80
2019-03-28T12:34:37.975Z,36.71
2019-03-28T12:35:42.806Z,36.57
2019-03-28T12:36:48.073Z,36.77
2019-03-28T12:37:52.892Z,36.93
2019-03-28T12:38:57.583Z,37.12
2019-03-28T12:40:02.135Z,37.18
2019-03-28T12:41:06.949Z,37.19
2019-03-28T12:42:11.448Z,37.22
2019-03-28T12:43:16.302Z,37.21
2019-03-28T12:46:35.994Z,37.21
2019-03-28T12:47:42.802Z,37.30
2019-03-28T12:48:47.678Z,37.31
2019-03-28T12:49:52.606Z,37.33
2019-03-28T12:51:52.909Z,37.36
2019-03-28T12:52:58.439Z,37.45
2019-03-28T12:54:02.974Z,37.35
2019-03-28T12:55:08.964Z,37.43
2019-03-28T12:56:13.371Z,37.41
2019-03-28T12:57:18.105Z,37.31
2019-03-28T12:58:22.849Z,37.20
2019-03-28T12:59:27.523Z,37.15
2019-03-28T13:00:36.087Z,36.72
2019-03-28T13:01:40.649Z,36.89
2019-03-28T13:02:45.203Z,36.76
2019-03-28T13:03:50.247Z,36.86
2019-03-28T13:04:55.062Z,36.86
2019-03-28T13:05:59.539Z,36.74
2019-03-28T13:07:04.032Z,36.46
2019-03-28T13:08:08.618Z,36.58
2019-03-28T13:09:13.172Z,36.29
2019-03-28T13:10:18.104Z,36.48
2019-03-28T13:11:22.587Z,36.61
2019-03-28T13:12:27.439Z,36.47
2019-03-28T13:13:32.120Z,36.53
2019-03-28T13:14:36.794Z,36.60
2019-03-28T13:15:41.530Z,36.74
2019-03-28T13:16:46.322Z,36.69
2019-03-28T13:17:51.041Z,36.85
2019-03-28T13:18:55.794Z,36.86
2019-03-28T13:20:00.450Z,36.93
2019-03-28T13:21:13.239Z,36.93
2019-03-28T13:22:11.902Z,36.84
2019-03-28T13:23:16.573Z,36.73
2019-03-28T13:24:21.238Z,36.76
2019-03-28T13:25:25.975Z,36.75
2019-03-28T13:26:30.452Z,36.75
2019-03-28T13:27:36.564Z,36.57
2019-03-28T13:28:41.419Z,36.40
2019-03-28T13:29:46.143Z,36.30
2019-03-28T13:30:51.451Z,36.27
2019-03-28T13:31:56.189Z,36.24
2019-03-28T13:33:00.595Z,36.16
2019-03-28T13:34:05.932Z,36.01
2019-03-28T13:35:10.749Z,35.88
2019-03-28T13:36:15.303Z,35.73
2019-03-28T13:37:19.966Z,35.60
2019-03-28T13:38:24.862Z,35.60
2019-03-28T13:39:29.282Z,35.50
2019-03-28T13:40:33.755Z,35.38
2019-03-28T13:41:38.495Z,35.29
2019-03-28T13:42:43.554Z,35.17
2019-03-28T13:43:47.966Z,35.13
2019-03-28T13:44:52.921Z,34.97
2019-03-28T13:45:57.683Z,35.10
2019-03-28T13:47:02.419Z,34.98
2019-03-28T13:48:07.259Z,34.98
2019-03-28T13:49:12.204Z,35.00
2019-03-28T13:50:16.991Z,35.09
2019-03-28T13:51:21.470Z,35.02
2019-03-28T13:52:26.463Z,34.92
2019-03-28T13:53:39.221Z,34.84
2019-03-28T13:54:37.495Z,34.75
2019-03-28T13:55:42.310Z,34.73
2019-03-28T13:56:47.122Z,34.54
2019-03-28T13:57:52.355Z,34.53
2019-03-28T13:58:57.434Z,34.49
2019-03-28T14:00:02.462Z,34.48
2019-03-28T14:01:07.130Z,34.41
2019-03-28T14:02:12.390Z,34.49
2019-03-28T14:03:17.301Z,34.46